AUR2LC EGJB-EGJJ

Flight info

Callsign AUR2LC
Flight time 0h 19m
Altitude 5000
Route JSY/N0187F040
Aircraft SH36/M-SDFGRY/S

Departure

Time 2026-04-25 14:56
Airport Guernsey Airport (EGJB)

Arrival

Time 2026-04-25 15:16
Airport Jersey Airport (EGJJ)
Time Latitude Longitude Altitude Speed Heading
2026-04-25 14:40 49.43292 -2.59850 319 ft 0 kts 89°
2026-04-25 14:52 49.43291 -2.59844 319 ft 0 kts 114°
2026-04-25 14:52 49.43275 -2.59877 317 ft 14 kts 289°
2026-04-25 14:52 49.43341 -2.59982 317 ft 17 kts 269°
2026-04-25 14:52 49.43338 -2.60055 316 ft 24 kts 267°
2026-04-25 14:53 49.43328 -2.60436 311 ft 19 kts 268°
2026-04-25 14:53 49.43341 -2.60735 308 ft 36 kts 281°
2026-04-25 14:53 49.43361 -2.61099 302 ft 33 kts 266°
2026-04-25 14:53 49.43409 -2.61330 299 ft 21 kts 317°
2026-04-25 14:54 49.43468 -2.61235 301 ft 21 kts 87°
2026-04-25 14:54 49.43481 -2.60778 308 ft 71 kts 87°
2026-04-25 14:54 49.43508 -2.59800 332 ft 107 kts 87°
2026-04-25 14:54 49.43551 -2.58576 407 ft 126 kts 82°
2026-04-25 14:55 49.43673 -2.57231 615 ft 127 kts 81°
2026-04-25 14:55 49.43869 -2.55889 645 ft 140 kts 60°
2026-04-25 14:55 49.44639 -2.54856 592 ft 150 kts 34°
2026-04-25 14:55 49.45532 -2.54068 666 ft 151 kts 35°
2026-04-25 14:56 49.46333 -2.52988 762 ft 151 kts 53°
2026-04-25 14:56 49.46777 -2.51530 798 ft 151 kts 71°
2026-04-25 14:56 49.47100 -2.50008 875 ft 152 kts 72°
2026-04-25 14:56 49.47448 -2.48451 939 ft 152 kts 71°
2026-04-25 14:57 49.47809 -2.46916 1017 ft 153 kts 70°
2026-04-25 14:57 49.48114 -2.45362 1052 ft 153 kts 87°
2026-04-25 14:57 49.47694 -2.43909 1067 ft 158 kts 139°
2026-04-25 14:57 49.46747 -2.43070 1142 ft 157 kts 151°
2026-04-25 14:58 49.45727 -2.42499 1159 ft 161 kts 177°
2026-04-25 14:58 49.44733 -2.43251 1180 ft 165 kts 227°
2026-04-25 14:58 49.43781 -2.44120 1200 ft 162 kts 186°
2026-04-25 14:58 49.42672 -2.44169 1303 ft 159 kts 178°
2026-04-25 14:59 49.41569 -2.44166 1383 ft 159 kts 179°
2026-04-25 14:59 49.40465 -2.44191 1467 ft 159 kts 179°
2026-04-25 14:59 49.39356 -2.44235 1555 ft 160 kts 180°
2026-04-25 14:59 49.38235 -2.44284 1653 ft 162 kts 180°
2026-04-25 15:00 49.37102 -2.44340 1734 ft 163 kts 180°
2026-04-25 15:00 49.35966 -2.44394 1829 ft 164 kts 180°
2026-04-25 15:00 49.34828 -2.44452 1911 ft 164 kts 180°
2026-04-25 15:00 49.33689 -2.44513 1999 ft 163 kts 180°
2026-04-25 15:01 49.32542 -2.44573 2021 ft 168 kts 180°
2026-04-25 15:01 49.31364 -2.44630 2025 ft 171 kts 180°
2026-04-25 15:01 49.30166 -2.44663 2036 ft 175 kts 180°
2026-04-25 15:01 49.28913 -2.44695 2030 ft 184 kts 180°
2026-04-25 15:02 49.27618 -2.44742 2029 ft 189 kts 180°
2026-04-25 15:02 49.26317 -2.44791 2026 ft 190 kts 180°
2026-04-25 15:02 49.24987 -2.44835 2028 ft 192 kts 180°
2026-04-25 15:02 49.23654 -2.44748 2017 ft 191 kts 170°
2026-04-25 15:03 49.22341 -2.44997 2024 ft 191 kts 189°
2026-04-25 15:03 49.21074 -2.44598 2007 ft 190 kts 144°
2026-04-25 15:03 49.20153 -2.43180 2024 ft 188 kts 127°
2026-04-25 15:03 49.19768 -2.41315 2027 ft 187 kts 92°
2026-04-25 15:04 49.19612 -2.39364 2011 ft 182 kts 101°
2026-04-25 15:04 49.19351 -2.37488 2007 ft 175 kts 102°
2026-04-25 15:04 49.19121 -2.35782 1996 ft 155 kts 100°
2026-04-25 15:04 49.19049 -2.34268 1989 ft 137 kts 81°
2026-04-25 15:05 49.19276 -2.32923 1873 ft 124 kts 73°
2026-04-25 15:05 49.19530 -2.31681 1719 ft 122 kts 72°
2026-04-25 15:05 49.19794 -2.30446 1492 ft 123 kts 74°
2026-04-25 15:06 49.20139 -2.27939 1228 ft 117 kts 82°
2026-04-25 15:06 49.20232 -2.26711 1157 ft 116 kts 84°
2026-04-25 15:06 49.20308 -2.25488 967 ft 112 kts 79°
2026-04-25 15:06 49.20408 -2.24309 785 ft 112 kts 84°
2026-04-25 15:07 49.20505 -2.23129 647 ft 111 kts 82°
2026-04-25 15:07 49.20602 -2.21952 502 ft 113 kts 83°
2026-04-25 15:07 49.20698 -2.20787 325 ft 103 kts 83°
2026-04-25 15:07 49.20783 -2.19789 278 ft 87 kts 82°
2026-04-25 15:08 49.20858 -2.18871 354 ft 96 kts 83°
2026-04-25 15:08 49.20941 -2.17818 585 ft 103 kts 83°
2026-04-25 15:08 49.21043 -2.16708 848 ft 105 kts 76°
2026-04-25 15:08 49.21516 -2.15881 1111 ft 110 kts 18°
2026-04-25 15:09 49.22257 -2.16141 1371 ft 119 kts 317°
2026-04-25 15:09 49.22613 -2.17278 1702 ft 120 kts 287°
2026-04-25 15:09 49.22984 -2.19851 2178 ft 126 kts 283°
2026-04-25 15:10 49.23172 -2.21274 2132 ft 141 kts 282°
2026-04-25 15:10 49.23514 -2.22630 2098 ft 136 kts 300°
2026-04-25 15:10 49.24418 -2.25045 2102 ft 126 kts 299°
2026-04-25 15:11 49.24837 -2.26208 2103 ft 124 kts 300°
2026-04-25 15:11 49.25260 -2.27359 2101 ft 125 kts 300°
2026-04-25 15:11 49.25665 -2.28542 2088 ft 126 kts 288°
2026-04-25 15:12 49.24737 -2.30339 2088 ft 113 kts 209°
2026-04-25 15:12 49.23991 -2.30883 1834 ft 124 kts 199°
2026-04-25 15:12 49.23170 -2.31293 1564 ft 124 kts 193°
2026-04-25 15:12 49.22889 -2.31401 1484 ft 123 kts 192°
2026-04-25 15:13 49.21541 -2.31418 1371 ft 125 kts 153°
2026-04-25 15:13 49.20657 -2.29355 1182 ft 115 kts 103°
2026-04-25 15:13 49.20511 -2.28129 1217 ft 112 kts 98°
2026-04-25 15:14 49.20398 -2.26971 1034 ft 111 kts 96°
2026-04-25 15:14 49.20361 -2.25835 900 ft 104 kts 89°
2026-04-25 15:14 49.20373 -2.24738 740 ft 101 kts 87°
2026-04-25 15:14 49.20470 -2.23669 638 ft 105 kts 84°
2026-04-25 15:15 49.20548 -2.22536 546 ft 106 kts 82°
2026-04-25 15:15 49.20641 -2.21445 399 ft 101 kts 82°
2026-04-25 15:15 49.20726 -2.20445 289 ft 91 kts 82°
2026-04-25 15:15 49.20804 -2.19519 278 ft 77 kts 83°
2026-04-25 15:16 49.20778 -2.18969 277 ft 37 kts 111°